createdAt,value
2023-03-05T00:00:23.724Z,99.99
2023-03-05T00:01:23.707Z,99.99
2023-03-05T00:02:23.853Z,99.99
2023-03-05T00:03:23.715Z,99.99
2023-03-05T00:04:23.649Z,99.99
2023-03-05T00:05:23.629Z,99.99
2023-03-05T00:06:23.615Z,99.99
2023-03-05T00:07:23.589Z,99.99
2023-03-05T00:08:23.573Z,99.99
2023-03-05T00:09:23.551Z,99.99
2023-03-05T00:10:23.556Z,99.99
2023-03-05T00:11:23.516Z,99.99
2023-03-05T00:12:23.511Z,99.99
2023-03-05T00:13:23.476Z,99.99
2023-03-05T00:14:23.464Z,99.99
2023-03-05T00:15:23.443Z,99.99
2023-03-05T00:16:23.493Z,99.99
2023-03-05T00:17:23.403Z,99.99
2023-03-05T00:18:23.387Z,99.99
2023-03-05T00:19:23.373Z,99.99
2023-03-05T00:20:23.349Z,99.99
2023-03-05T00:21:23.328Z,99.99
2023-03-05T00:22:23.313Z,99.99
2023-03-05T00:23:23.293Z,99.99
2023-03-05T00:24:23.274Z,99.99
2023-03-05T00:25:23.257Z,99.99
2023-03-05T00:26:23.261Z,99.99
2023-03-05T00:27:23.216Z,99.99
2023-03-05T00:28:23.214Z,99.99
2023-03-05T00:29:23.182Z,99.99
2023-03-05T00:30:23.177Z,99.99
2023-03-05T00:31:23.260Z,99.99
2023-03-05T00:32:23.202Z,99.99
2023-03-05T00:33:23.111Z,99.99
2023-03-05T00:34:23.097Z,99.99
2023-03-05T00:35:23.143Z,99.99
2023-03-05T00:36:23.059Z,99.99
2023-03-05T00:37:23.039Z,99.99
2023-03-05T00:38:23.024Z,99.99
2023-03-05T00:39:23.010Z,99.99
2023-03-05T00:40:23.129Z,99.99
2023-03-05T00:41:22.981Z,99.99
2023-03-05T00:42:22.978Z,99.99
2023-03-05T00:43:22.930Z,99.99
2023-03-05T00:44:22.921Z,99.99
2023-03-05T00:45:22.897Z,99.99
2023-03-05T00:46:22.912Z,99.99
2023-03-05T00:47:22.857Z,99.99
2023-03-05T00:48:22.844Z,99.99
2023-03-05T00:49:22.833Z,99.99
2023-03-05T00:50:22.808Z,99.99
2023-03-05T00:51:22.794Z,99.99
2023-03-05T00:52:22.776Z,99.77
2023-03-05T00:53:22.750Z,99.29
2023-03-05T00:54:22.736Z,98.82
2023-03-05T00:55:22.714Z,99.01
2023-03-05T00:56:22.699Z,98.91
2023-03-05T00:57:22.677Z,99.48
2023-03-05T00:58:22.683Z,99.10
2023-03-05T00:59:22.646Z,99.58
2023-03-05T01:00:22.637Z,99.48
2023-03-05T01:01:22.712Z,99.96
2023-03-05T01:02:22.594Z,99.48
2023-03-05T01:03:22.569Z,99.99
2023-03-05T01:04:22.546Z,99.99
2023-03-05T01:05:22.596Z,99.29
2023-03-05T01:06:22.508Z,99.10
2023-03-05T01:07:22.490Z,99.10
2023-03-05T01:08:22.470Z,99.99
2023-03-05T01:09:22.463Z,99.99
2023-03-05T01:10:22.434Z,99.99
2023-03-05T01:11:22.421Z,99.99
2023-03-05T01:12:22.392Z,99.99
2023-03-05T01:13:22.374Z,99.99
2023-03-05T01:14:22.372Z,99.99
2023-03-05T01:15:22.334Z,99.99
2023-03-05T01:16:22.333Z,99.67
2023-03-05T01:17:22.295Z,99.99
2023-03-05T01:18:22.278Z,99.67
2023-03-05T01:19:22.258Z,99.20
2023-03-05T01:20:22.242Z,99.99
2023-03-05T01:21:22.218Z,99.99
2023-03-05T01:22:22.216Z,99.99
2023-03-05T01:23:22.185Z,99.99
2023-03-05T01:24:22.168Z,99.99
2023-03-05T01:25:22.153Z,99.86
2023-03-05T01:26:22.134Z,98.72
2023-03-05T01:27:22.112Z,99.99
2023-03-05T01:28:22.097Z,99.99
2023-03-05T01:29:22.074Z,99.99
2023-03-05T01:30:22.078Z,99.99
2023-03-05T01:31:22.055Z,99.99
2023-03-05T01:32:22.085Z,99.99
2023-03-05T01:33:22.006Z,99.99
2023-03-05T01:34:21.986Z,99.99
2023-03-05T01:35:22.013Z,99.99
2023-03-05T01:36:21.947Z,99.99
2023-03-05T01:37:21.939Z,99.99
2023-03-05T01:38:21.921Z,99.99
2023-03-05T01:39:21.894Z,99.99
2023-03-05T01:40:21.877Z,99.01
2023-03-05T01:41:21.857Z,99.20
2023-03-05T01:42:21.842Z,98.91
2023-03-05T01:43:21.822Z,99.96
2023-03-05T01:44:21.808Z,99.99
2023-03-05T01:45:21.786Z,99.99
2023-03-05T01:46:21.796Z,99.99
2023-03-05T01:47:21.752Z,99.99
2023-03-05T01:48:21.749Z,99.99
2023-03-05T01:49:21.716Z,99.99
2023-03-05T01:50:21.709Z,99.99
2023-03-05T01:51:21.685Z,99.99
2023-03-05T01:52:21.671Z,99.99
2023-03-05T01:53:21.642Z,99.99
2023-03-05T01:54:21.625Z,99.99
2023-03-05T01:55:21.622Z,99.99
2023-03-05T01:56:21.588Z,99.99
2023-03-05T01:57:21.570Z,99.99
2023-03-05T01:58:21.548Z,99.99
2023-03-05T01:59:21.536Z,99.99
2023-03-05T02:00:21.511Z,99.99
2023-03-05T02:01:21.549Z,99.99
2023-03-05T02:02:21.493Z,99.99
2023-03-05T02:03:21.462Z,99.99
2023-03-05T02:04:21.444Z,99.29
2023-03-05T02:05:21.423Z,99.99
2023-03-05T02:06:21.404Z,99.99
2023-03-05T02:07:21.387Z,99.77
2023-03-05T02:08:21.364Z,99.99
2023-03-05T02:09:21.353Z,99.99
2023-03-05T02:10:21.329Z,99.99
2023-03-05T02:11:21.316Z,99.99
2023-03-05T02:12:21.311Z,98.82
2023-03-05T02:13:21.288Z,99.34
2023-03-05T02:14:21.274Z,99.99
2023-03-05T02:15:21.244Z,99.10
2023-03-05T02:16:21.251Z,98.06
2023-03-05T02:17:21.209Z,99.44
2023-03-05T02:18:21.208Z,98.91
2023-03-05T02:19:21.175Z,98.82
2023-03-05T02:20:21.170Z,99.82
2023-03-05T02:21:21.138Z,98.72
2023-03-05T02:22:21.117Z,98.16
2023-03-05T02:23:21.130Z,97.49
2023-03-05T02:24:21.082Z,97.78
2023-03-05T02:25:21.069Z,99.10
2023-03-05T02:26:21.046Z,98.82
2023-03-05T02:27:21.036Z,98.54
2023-03-05T02:28:21.012Z,98.91
2023-03-05T02:29:20.996Z,99.77
2023-03-05T02:30:20.975Z,99.39
2023-03-05T02:31:21.058Z,99.01
2023-03-05T02:32:20.968Z,99.99
2023-03-05T02:33:20.922Z,99.99
2023-03-05T02:34:20.924Z,99.99
2023-03-05T02:35:20.963Z,99.99
2023-03-05T02:36:20.867Z,99.99
2023-03-05T02:37:20.852Z,99.10
2023-03-05T02:38:20.836Z,98.63
2023-03-05T02:39:20.816Z,99.67
2023-03-05T02:40:20.797Z,99.48
2023-03-05T02:41:20.785Z,99.99
2023-03-05T02:42:20.760Z,99.67
2023-03-05T02:43:20.744Z,98.91
2023-03-05T02:44:20.732Z,98.72
2023-03-05T02:45:20.719Z,99.10
2023-03-05T02:46:20.688Z,99.10
2023-03-05T02:47:20.680Z,99.10
2023-03-05T02:48:20.652Z,99.48
2023-03-05T02:49:20.637Z,99.99
2023-03-05T02:50:20.641Z,99.99
2023-03-05T02:51:20.602Z,99.99
2023-03-05T02:52:20.581Z,99.99
2023-03-05T02:53:20.565Z,99.99
2023-03-05T02:54:20.548Z,99.99
2023-03-05T02:55:20.530Z,99.99
2023-03-05T02:56:20.514Z,99.99
2023-03-05T02:57:20.496Z,99.99
2023-03-05T02:58:20.476Z,99.99
2023-03-05T02:59:20.459Z,99.99
2023-03-05T03:00:20.440Z,99.99
2023-03-05T03:01:20.524Z,99.99
2023-03-05T03:02:20.405Z,99.99
2023-03-05T03:03:20.413Z,99.99
2023-03-05T03:04:20.372Z,99.99
2023-03-05T03:05:20.354Z,99.99
2023-03-05T03:06:20.357Z,99.99
2023-03-05T03:07:20.318Z,99.99
2023-03-05T03:08:20.298Z,99.99
2023-03-05T03:09:20.282Z,99.99
2023-03-05T03:10:20.262Z,99.99
2023-03-05T03:11:20.247Z,99.20
2023-03-05T03:12:20.227Z,97.88
2023-03-05T03:13:20.212Z,97.78
2023-03-05T03:14:20.192Z,97.21
2023-03-05T03:15:20.187Z,97.64
2023-03-05T03:16:20.206Z,97.69
2023-03-05T03:17:20.144Z,98.58
2023-03-05T03:18:20.123Z,98.49
2023-03-05T03:19:20.121Z,97.64
2023-03-05T03:20:20.092Z,97.54
2023-03-05T03:21:20.088Z,97.73
2023-03-05T03:22:20.075Z,97.64
2023-03-05T03:23:20.045Z,97.64
2023-03-05T03:24:20.020Z,98.39
2023-03-05T03:25:20.008Z,98.58
2023-03-05T03:26:19.986Z,98.68
2023-03-05T03:27:19.975Z,98.87
2023-03-05T03:28:19.952Z,98.68
2023-03-05T03:29:19.938Z,99.10
2023-03-05T03:30:19.922Z,99.99
2023-03-05T03:31:20.007Z,99.99
2023-03-05T03:32:19.933Z,99.99
2023-03-05T03:33:19.869Z,99.34
2023-03-05T03:34:19.857Z,99.99
2023-03-05T03:35:19.887Z,99.67
2023-03-05T03:36:19.813Z,99.77
2023-03-05T03:37:19.800Z,99.96
2023-03-05T03:38:19.812Z,99.99
2023-03-05T03:39:19.770Z,99.86
2023-03-05T03:40:19.746Z,99.86
2023-03-05T03:41:19.732Z,99.99
2023-03-05T03:42:19.710Z,99.99
2023-03-05T03:43:19.697Z,99.99
2023-03-05T03:44:19.676Z,99.99
2023-03-05T03:45:19.662Z,99.99
2023-03-05T03:46:19.660Z,99.99
2023-03-05T03:47:19.633Z,99.99
2023-03-05T03:48:19.606Z,99.99
2023-03-05T03:49:19.592Z,99.99
2023-03-05T03:50:19.572Z,99.99
2023-03-05T03:51:19.559Z,99.99
2023-03-05T03:52:19.546Z,99.82
2023-03-05T03:53:19.526Z,99.99
2023-03-05T03:54:19.517Z,99.99
2023-03-05T03:55:19.488Z,99.99
2023-03-05T03:56:19.480Z,99.99
2023-03-05T03:57:19.450Z,99.99
2023-03-05T03:58:19.432Z,99.86
2023-03-05T03:59:19.419Z,99.99
2023-03-05T04:00:19.397Z,99.99
2023-03-05T04:01:19.382Z,99.99
2023-03-05T04:02:19.402Z,99.99
2023-03-05T04:03:19.347Z,99.99
2023-03-05T04:04:19.415Z,99.99
2023-03-05T04:05:19.313Z,99.99
2023-03-05T04:06:19.296Z,99.99
2023-03-05T04:07:19.279Z,99.99
2023-03-05T04:08:19.262Z,99.99
2023-03-05T04:09:19.244Z,99.99
2023-03-05T04:10:19.248Z,99.06
2023-03-05T04:11:19.220Z,99.15
2023-03-05T04:12:19.186Z,99.99
2023-03-05T04:13:19.178Z,99.99
2023-03-05T04:14:19.165Z,99.99
2023-03-05T04:15:19.141Z,99.82
2023-03-05T04:16:19.162Z,99.72
2023-03-05T04:17:19.105Z,99.34
2023-03-05T04:18:19.087Z,99.99
2023-03-05T04:19:19.072Z,99.99
2023-03-05T04:20:19.049Z,99.99
2023-03-05T04:21:19.037Z,99.99
2023-03-05T04:22:19.014Z,99.99
2023-03-05T04:23:19.003Z,99.99
2023-03-05T04:24:18.984Z,99.99
2023-03-05T04:25:18.966Z,99.99
2023-03-05T04:26:18.965Z,99.99
2023-03-05T04:27:18.931Z,99.99
2023-03-05T04:28:18.914Z,99.99
2023-03-05T04:29:18.892Z,99.99
2023-03-05T04:30:18.873Z,99.99
2023-03-05T04:31:18.978Z,99.99
2023-03-05T04:32:18.867Z,99.99
2023-03-05T04:33:18.821Z,99.99
2023-03-05T04:34:18.801Z,99.99
2023-03-05T04:35:18.825Z,99.99
2023-03-05T04:36:18.765Z,99.99
2023-03-05T04:37:18.750Z,99.99
2023-03-05T04:38:18.730Z,99.99
2023-03-05T04:39:18.718Z,99.99
2023-03-05T04:40:18.694Z,99.99
2023-03-05T04:41:18.692Z,99.99
2023-03-05T04:42:18.685Z,99.99
2023-03-05T04:43:18.644Z,99.99
2023-03-05T04:44:18.625Z,99.99
2023-03-05T04:45:18.610Z,99.99
2023-03-05T04:46:18.610Z,99.99
2023-03-05T04:47:18.576Z,99.99
2023-03-05T04:48:18.553Z,99.99
2023-03-05T04:49:18.542Z,99.99
2023-03-05T04:50:18.530Z,99.96
2023-03-05T04:51:18.513Z,99.99
2023-03-05T04:52:18.486Z,99.99
2023-03-05T04:53:18.469Z,99.99
2023-03-05T04:54:18.457Z,99.96
2023-03-05T04:55:18.446Z,99.99
2023-03-05T04:56:18.415Z,99.99
2023-03-05T04:57:18.397Z,99.99
2023-03-05T04:58:18.402Z,99.99
2023-03-05T04:59:18.364Z,99.99
2023-03-05T05:00:18.356Z,99.86
2023-03-05T05:01:18.364Z,99.99
2023-03-05T05:02:18.315Z,99.72
2023-03-05T05:03:18.422Z,99.99
2023-03-05T05:04:18.278Z,99.99
2023-03-05T05:05:18.261Z,99.99
2023-03-05T05:06:18.240Z,99.82
2023-03-05T05:07:18.227Z,99.99
2023-03-05T05:08:18.205Z,99.99
2023-03-05T05:09:18.205Z,99.99
2023-03-05T05:10:18.176Z,99.99
2023-03-05T05:11:18.172Z,99.99
2023-03-05T05:12:18.139Z,99.72
2023-03-05T05:13:18.125Z,98.96
2023-03-05T05:14:18.143Z,99.99
2023-03-05T05:15:18.100Z,99.15
2023-03-05T05:16:18.142Z,99.99
2023-03-05T05:17:18.053Z,99.99
2023-03-05T05:18:18.038Z,99.99
2023-03-05T05:19:18.054Z,99.15
2023-03-05T05:20:18.002Z,99.44
2023-03-05T05:21:17.984Z,99.99
2023-03-05T05:22:17.966Z,99.99
2023-03-05T05:23:17.949Z,99.34
2023-03-05T05:24:17.934Z,98.87
2023-03-05T05:25:17.915Z,99.15
2023-03-05T05:26:17.899Z,98.77
2023-03-05T05:27:17.886Z,98.87
2023-03-05T05:28:17.867Z,99.01
2023-03-05T05:29:17.847Z,98.68
2023-03-05T05:30:17.847Z,98.72
2023-03-05T05:31:17.845Z,99.01
2023-03-05T05:32:17.874Z,99.67
2023-03-05T05:33:17.774Z,99.99
2023-03-05T05:34:17.758Z,99.99
2023-03-05T05:35:17.861Z,99.99
2023-03-05T05:36:17.725Z,99.99
2023-03-05T05:37:17.708Z,99.99
2023-03-05T05:38:17.689Z,99.99
2023-03-05T05:39:20.134Z,99.99
2023-03-05T05:40:17.655Z,99.99
2023-03-05T05:41:17.640Z,99.99
2023-03-05T05:42:17.622Z,99.99
2023-03-05T05:43:17.606Z,99.99
2023-03-05T05:44:17.588Z,99.99
2023-03-05T05:45:17.622Z,99.99
2023-03-05T05:46:17.736Z,99.99
2023-03-05T05:47:17.541Z,99.99
2023-03-05T05:48:17.523Z,99.99
2023-03-05T05:49:17.507Z,99.99
2023-03-05T05:50:17.485Z,99.99
2023-03-05T05:51:17.482Z,99.99
2023-03-05T05:52:17.466Z,99.99
2023-03-05T05:53:17.435Z,99.99
2023-03-05T05:54:17.414Z,99.99
2023-03-05T05:55:17.399Z,99.99
2023-03-05T05:56:17.381Z,99.99
2023-03-05T05:57:17.364Z,99.99
2023-03-05T05:58:17.346Z,99.99
2023-03-05T05:59:17.330Z,99.99
2023-03-05T06:00:17.304Z,99.99
2023-03-05T06:01:17.293Z,99.99
2023-03-05T06:02:17.397Z,99.99
2023-03-05T06:03:17.388Z,99.99
2023-03-05T06:04:17.241Z,99.99
2023-03-05T06:05:17.228Z,99.99
2023-03-05T06:06:17.207Z,99.99
2023-03-05T06:07:17.186Z,99.99
2023-03-05T06:08:17.174Z,99.99
2023-03-05T06:09:17.149Z,99.99
2023-03-05T06:10:17.138Z,99.99
2023-03-05T06:11:19.242Z,99.99
2023-03-05T06:12:17.109Z,99.99
2023-03-05T06:13:17.095Z,99.99
2023-03-05T06:14:17.079Z,99.99
2023-03-05T06:15:17.046Z,99.99
2023-03-05T06:16:17.094Z,99.99
2023-03-05T06:17:28.742Z,99.99
2023-03-05T06:18:17.015Z,99.99
2023-03-05T06:19:16.984Z,99.99
2023-03-05T06:20:16.967Z,99.99
2023-03-05T06:21:16.965Z,99.99
2023-03-05T06:22:16.927Z,99.99
2023-03-05T06:23:16.905Z,99.99
2023-03-05T06:24:16.894Z,99.99
2023-03-05T06:25:16.870Z,99.99
2023-03-05T06:26:16.856Z,99.99
2023-03-05T06:27:16.837Z,99.99
2023-03-05T06:28:16.821Z,99.99
2023-03-05T06:29:16.807Z,99.99
2023-03-05T06:30:16.793Z,99.99
2023-03-05T06:31:16.783Z,99.99
2023-03-05T06:32:16.809Z,99.99
2023-03-05T06:33:16.731Z,99.99
2023-03-05T06:34:16.735Z,99.99
2023-03-05T06:35:16.698Z,99.99
2023-03-05T06:36:16.686Z,99.99
2023-03-05T06:37:16.667Z,99.99
2023-03-05T06:38:16.656Z,99.99
2023-03-05T06:39:16.629Z,99.99
2023-03-05T06:40:16.610Z,99.99
2023-03-05T06:41:16.594Z,99.99
2023-03-05T06:42:16.575Z,99.99
2023-03-05T06:43:16.556Z,99.99
2023-03-05T06:44:16.540Z,99.99
2023-03-05T06:45:16.519Z,99.99
2023-03-05T06:46:16.599Z,99.99
2023-03-05T06:47:16.514Z,99.99
2023-03-05T06:48:16.479Z,99.99
2023-03-05T06:49:16.452Z,99.99
2023-03-05T06:50:16.458Z,99.99
2023-03-05T06:51:16.434Z,99.99
2023-03-05T06:52:16.407Z,99.99
2023-03-05T06:53:16.391Z,99.99
2023-03-05T06:54:16.365Z,99.99
2023-03-05T06:55:16.345Z,99.99
2023-03-05T06:56:16.334Z,99.99
2023-03-05T06:57:16.309Z,99.99
2023-03-05T06:58:16.299Z,99.99
2023-03-05T06:59:16.274Z,99.99
2023-03-05T07:00:16.259Z,99.99
2023-03-05T07:01:16.275Z,99.99
2023-03-05T07:02:16.231Z,99.99
2023-03-05T07:03:16.415Z,99.99
2023-03-05T07:04:16.192Z,99.99
2023-03-05T07:05:16.171Z,99.99
2023-03-05T07:06:16.175Z,99.99
2023-03-05T07:07:16.133Z,99.99
2023-03-05T07:08:16.123Z,99.99
2023-03-05T07:09:16.102Z,99.99
2023-03-05T07:10:16.086Z,99.99
2023-03-05T07:11:16.066Z,99.99
2023-03-05T07:12:16.058Z,99.99
2023-03-05T07:13:16.026Z,99.99
2023-03-05T07:14:16.013Z,99.99
2023-03-05T07:15:15.992Z,99.99
2023-03-05T07:16:16.026Z,99.99
2023-03-05T07:17:15.958Z,99.99
2023-03-05T07:18:15.941Z,99.99
2023-03-05T07:19:15.925Z,99.99
2023-03-05T07:20:15.907Z,99.99
2023-03-05T07:21:15.891Z,99.99
2023-03-05T07:22:15.892Z,99.99
2023-03-05T07:23:15.852Z,99.99
2023-03-05T07:24:15.836Z,99.99
2023-03-05T07:25:15.818Z,99.99
2023-03-05T07:26:15.830Z,99.99
2023-03-05T07:27:15.779Z,99.99
2023-03-05T07:28:15.773Z,99.99
2023-03-05T07:29:15.746Z,99.99
2023-03-05T07:30:15.739Z,99.99
2023-03-05T07:31:15.777Z,99.99
2023-03-05T07:32:15.779Z,99.25
2023-03-05T07:33:15.690Z,99.39
2023-03-05T07:34:15.661Z,99.30
2023-03-05T07:35:15.646Z,98.87
2023-03-05T07:36:15.628Z,99.01
2023-03-05T07:37:15.613Z,98.77
2023-03-05T07:38:15.613Z,99.25
2023-03-05T07:39:15.573Z,98.87
2023-03-05T07:40:15.557Z,99.99
2023-03-05T07:41:15.536Z,99.99
2023-03-05T07:42:15.538Z,99.63
2023-03-05T07:43:15.500Z,99.25
2023-03-05T07:44:15.488Z,99.91
2023-03-05T07:45:15.471Z,98.96
2023-03-05T07:46:15.505Z,99.99
2023-03-05T07:47:15.435Z,99.99
2023-03-05T07:48:15.435Z,99.99
2023-03-05T07:49:15.398Z,99.99
2023-03-05T07:50:15.393Z,99.15
2023-03-05T07:51:15.364Z,98.58
2023-03-05T07:52:15.350Z,98.30
2023-03-05T07:53:15.328Z,98.49
2023-03-05T07:54:15.334Z,98.91
2023-03-05T07:55:15.297Z,99.10
2023-03-05T07:56:15.280Z,99.67
2023-03-05T07:57:15.259Z,99.91
2023-03-05T07:58:15.249Z,99.99
2023-03-05T07:59:15.228Z,99.63
2023-03-05T08:00:15.217Z,99.15
2023-03-05T08:01:15.201Z,99.44
2023-03-05T08:02:15.192Z,99.44
2023-03-05T08:03:15.158Z,99.25
2023-03-05T08:04:15.240Z,99.99
2023-03-05T08:05:15.133Z,99.99
2023-03-05T08:06:15.113Z,99.99
2023-03-05T08:07:15.088Z,99.99
2023-03-05T08:08:15.084Z,98.87
2023-03-05T08:09:15.053Z,98.02
2023-03-05T08:10:15.059Z,98.11
2023-03-05T08:11:15.020Z,98.30
2023-03-05T08:12:15.006Z,98.58
2023-03-05T08:13:15.089Z,98.49
2023-03-05T08:14:14.970Z,98.58
2023-03-05T08:15:14.951Z,98.96
2023-03-05T08:16:15.038Z,98.96
2023-03-05T08:17:14.915Z,98.58
2023-03-05T08:18:14.907Z,99.06
2023-03-05T08:19:14.883Z,99.99
2023-03-05T08:20:14.868Z,99.87
2023-03-05T08:21:14.847Z,98.92
2023-03-05T08:22:14.834Z,98.54
2023-03-05T08:23:14.865Z,98.44
2023-03-05T08:24:14.806Z,98.16
2023-03-05T08:25:14.781Z,98.16
2023-03-05T08:26:14.788Z,97.50
2023-03-05T08:27:14.747Z,98.44
2023-03-05T08:28:14.732Z,99.11
2023-03-05T08:29:14.713Z,98.16
2023-03-05T08:30:14.706Z,97.02
2023-03-05T08:31:14.727Z,97.97
2023-03-05T08:32:14.727Z,97.59
2023-03-05T08:33:14.682Z,97.88
2023-03-05T08:34:14.642Z,97.59
2023-03-05T08:35:14.608Z,99.06
2023-03-05T08:36:14.594Z,97.74
2023-03-05T08:37:14.579Z,97.07
2023-03-05T08:38:47.768Z,96.88
2023-03-05T08:39:14.546Z,99.11
2023-03-05T08:40:14.526Z,96.83
2023-03-05T08:41:14.523Z,96.17
2023-03-05T08:42:14.511Z,94.37
2023-03-05T08:43:14.513Z,92.37
2023-03-05T08:44:14.461Z,91.33
2023-03-05T08:45:14.450Z,91.14
2023-03-05T08:46:14.476Z,92.66
2023-03-05T08:47:14.420Z,96.26
2023-03-05T08:48:14.393Z,95.31
2023-03-05T08:49:14.385Z,93.41
2023-03-05T08:50:14.359Z,93.99
2023-03-05T08:51:14.357Z,93.89
2023-03-05T08:52:14.326Z,92.28
2023-03-05T08:53:14.363Z,90.00
2023-03-05T08:54:14.294Z,89.67
2023-03-05T08:55:14.294Z,89.24
2023-03-05T08:56:14.265Z,91.38
2023-03-05T08:57:14.251Z,91.38
2023-03-05T08:58:14.254Z,91.09
2023-03-05T08:59:14.218Z,92.13
2023-03-05T09:00:14.205Z,92.71
2023-03-05T09:01:14.185Z,90.14
2023-03-05T09:02:14.179Z,88.15
2023-03-05T09:03:14.183Z,87.48
2023-03-05T09:04:14.134Z,88.85
2023-03-05T09:05:14.119Z,88.47
2023-03-05T09:06:14.103Z,89.80
2023-03-05T09:07:14.091Z,88.95
2023-03-05T09:08:14.074Z,88.38
2023-03-05T09:09:14.067Z,87.62
2023-03-05T09:10:14.038Z,87.34
2023-03-05T09:11:14.038Z,85.62
2023-03-05T09:12:14.006Z,85.81
2023-03-05T09:13:14.095Z,86.29
2023-03-05T09:14:14.021Z,86.10
2023-03-05T09:15:13.970Z,87.62
2023-03-05T09:16:13.991Z,88.85
2023-03-05T09:17:13.935Z,87.52
2023-03-05T09:18:13.912Z,86.76
2023-03-05T09:19:13.897Z,86.80
2023-03-05T09:20:13.903Z,85.47
2023-03-05T09:21:13.870Z,86.33
2023-03-05T09:22:13.850Z,86.61
2023-03-05T09:23:13.932Z,87.19
2023-03-05T09:24:13.815Z,84.52
2023-03-05T09:25:13.825Z,87.38
2023-03-05T09:26:13.786Z,86.24
2023-03-05T09:27:13.773Z,86.61
2023-03-05T09:28:13.752Z,86.61
2023-03-05T09:29:13.950Z,86.94
2023-03-05T09:30:13.741Z,88.37
2023-03-05T09:31:13.792Z,87.71
2023-03-05T09:32:13.746Z,86.28
2023-03-05T09:33:13.682Z,86.18
2023-03-05T09:34:13.662Z,85.42
2023-03-05T09:35:13.647Z,85.42
2023-03-05T09:36:13.629Z,84.66
2023-03-05T09:37:13.628Z,85.14
2023-03-05T09:38:13.600Z,84.56
2023-03-05T09:39:13.598Z,84.28
2023-03-05T09:40:13.567Z,85.24
2023-03-05T09:41:13.567Z,85.24
2023-03-05T09:42:13.538Z,84.09
2023-03-05T09:43:13.599Z,83.71
2023-03-05T09:44:13.506Z,84.80
2023-03-05T09:45:13.496Z,85.42
2023-03-05T09:46:13.676Z,84.00
2023-03-05T09:47:14.668Z,83.18
2023-03-05T09:48:13.520Z,82.76
2023-03-05T09:49:13.436Z,83.90
2023-03-05T09:50:13.421Z,84.85
2023-03-05T09:51:13.406Z,85.08
2023-03-05T09:52:13.386Z,84.04
2023-03-05T09:53:13.439Z,84.61
2023-03-05T09:54:13.363Z,86.13
2023-03-05T09:55:13.349Z,84.42
2023-03-05T09:56:13.332Z,83.94
2023-03-05T09:57:13.318Z,83.37
2023-03-05T09:58:13.313Z,82.14
2023-03-05T09:59:13.291Z,82.80
2023-03-05T10:00:13.286Z,81.85
2023-03-05T10:01:13.264Z,81.56
2023-03-05T10:02:13.259Z,82.80
2023-03-05T10:03:13.419Z,82.80
2023-03-05T10:04:13.231Z,83.85
2023-03-05T10:05:13.213Z,82.42
2023-03-05T10:06:13.185Z,83.03
2023-03-05T10:07:13.175Z,82.84
2023-03-05T10:08:13.155Z,83.70
2023-03-05T10:09:13.144Z,84.75
2023-03-05T10:10:13.129Z,82.27
2023-03-05T10:11:13.116Z,79.60
2023-03-05T10:12:13.103Z,78.94
2023-03-05T10:13:13.091Z,80.94
2023-03-05T10:14:13.072Z,80.75
2023-03-05T10:15:13.061Z,81.51
2023-03-05T10:16:13.076Z,81.41
2023-03-05T10:17:13.030Z,82.65
2023-03-05T10:18:13.042Z,81.23
2023-03-05T10:19:13.002Z,80.88
2023-03-05T10:20:12.989Z,81.74
2023-03-05T10:21:12.971Z,82.89
2023-03-05T10:22:12.962Z,80.60
2023-03-05T10:23:12.953Z,77.64
2023-03-05T10:24:12.932Z,77.26
2023-03-05T10:25:12.917Z,79.27
2023-03-05T10:26:12.908Z,79.36
2023-03-05T10:27:12.961Z,79.27
2023-03-05T10:28:12.876Z,81.17
2023-03-05T10:29:12.866Z,81.46
2023-03-05T10:30:12.851Z,79.74
2023-03-05T10:31:12.854Z,79.27
2023-03-05T10:32:12.954Z,79.36
2023-03-05T10:33:12.877Z,78.69
2023-03-05T10:34:12.818Z,78.50
2023-03-05T10:35:12.792Z,78.35
2023-03-05T10:36:12.768Z,78.59
2023-03-05T10:37:12.764Z,79.21
2023-03-05T10:38:12.745Z,80.35
2023-03-05T10:39:12.726Z,79.88
2023-03-05T10:40:12.714Z,78.16
2023-03-05T10:41:12.697Z,78.44
2023-03-05T10:42:12.689Z,78.44
2023-03-05T10:43:12.674Z,79.40
2023-03-05T10:44:12.665Z,78.35
2023-03-05T10:45:13.992Z,78.54
2023-03-05T10:46:12.682Z,79.40
2023-03-05T10:47:12.618Z,77.78
2023-03-05T10:48:12.608Z,76.31
2023-03-05T10:49:12.592Z,76.31
2023-03-05T10:50:12.600Z,77.42
2023-03-05T10:51:12.569Z,77.61
2023-03-05T10:52:12.554Z,78.23
2023-03-05T10:53:12.540Z,80.04
2023-03-05T10:54:12.530Z,80.33
2023-03-05T10:55:12.513Z,80.61
2023-03-05T10:56:12.504Z,80.90
2023-03-05T10:57:12.492Z,81.14
2023-03-05T10:58:12.478Z,81.66
2023-03-05T10:59:12.457Z,82.90
2023-03-05T11:00:12.444Z,82.57
2023-03-05T11:01:12.525Z,82.48
2023-03-05T11:02:12.462Z,82.28
2023-03-05T11:03:12.408Z,82.76
2023-03-05T11:04:12.389Z,81.90
2023-03-05T11:05:12.381Z,81.43
2023-03-05T11:06:12.378Z,81.52
2023-03-05T11:07:12.342Z,82.67
2023-03-05T11:08:12.328Z,81.90
2023-03-05T11:09:12.312Z,81.47
2023-03-05T11:10:12.303Z,81.47
2023-03-05T11:11:12.309Z,81.76
2023-03-05T11:12:12.282Z,81.47
2023-03-05T11:13:12.333Z,80.42
2023-03-05T11:14:12.260Z,80.71
2023-03-05T11:15:12.237Z,80.80
2023-03-05T11:16:12.289Z,79.22
2023-03-05T11:17:12.198Z,78.27
2023-03-05T11:18:12.201Z,78.56
2023-03-05T11:19:12.170Z,77.61
2023-03-05T11:20:12.161Z,76.75
2023-03-05T11:21:12.141Z,79.22
2023-03-05T11:22:12.150Z,79.83
2023-03-05T11:23:12.116Z,80.02
2023-03-05T11:24:12.100Z,79.36
2023-03-05T11:25:12.083Z,77.59
2023-03-05T11:26:12.079Z,78.83
2023-03-05T11:27:12.056Z,76.06
2023-03-05T11:28:13.800Z,74.63
2023-03-05T11:29:12.028Z,74.06
2023-03-05T11:30:12.019Z,75.40
2023-03-05T11:31:12.069Z,74.06
2023-03-05T11:32:12.035Z,73.49
2023-03-05T11:33:11.985Z,74.35
2023-03-05T11:34:11.969Z,75.59
2023-03-05T11:35:11.947Z,75.40
2023-03-05T11:36:11.941Z,72.53
2023-03-05T11:37:11.925Z,74.01
2023-03-05T11:38:11.928Z,74.01
2023-03-05T11:39:11.896Z,73.72
2023-03-05T11:40:11.885Z,72.86
2023-03-05T11:41:11.868Z,71.04
2023-03-05T11:42:11.864Z,68.66
2023-03-05T11:43:11.844Z,68.18
2023-03-05T11:44:13.457Z,67.99
2023-03-05T11:45:11.818Z,69.71
2023-03-05T11:46:11.991Z,69.23
2023-03-05T11:47:11.793Z,68.95
2023-03-05T11:48:11.788Z,70.95
2023-03-05T11:49:11.768Z,72.19
2023-03-05T11:50:11.758Z,71.72
2023-03-05T11:51:11.749Z,70.42
2023-03-05T11:52:11.733Z,69.08
2023-03-05T11:53:11.725Z,68.70
2023-03-05T11:54:11.726Z,69.17
2023-03-05T11:55:11.696Z,68.03
2023-03-05T11:56:11.697Z,67.27
2023-03-05T11:57:11.693Z,66.88
2023-03-05T11:58:11.663Z,66.78
2023-03-05T11:59:11.647Z,68.12
2023-03-05T12:00:11.645Z,68.85
2023-03-05T12:01:11.621Z,68.09
2023-03-05T12:02:11.611Z,67.71
2023-03-05T12:03:11.722Z,68.38
2023-03-05T12:04:11.767Z,70.67
2023-03-05T12:05:11.572Z,71.72
2023-03-05T12:06:11.572Z,74.67
2023-03-05T12:07:11.549Z,75.43
2023-03-05T12:08:11.548Z,70.67
2023-03-05T12:09:11.525Z,69.04
2023-03-05T12:11:11.548Z,73.21
2023-03-05T12:12:11.489Z,72.53
2023-03-05T12:13:11.479Z,72.82
2023-03-05T12:14:11.463Z,72.44
2023-03-05T12:15:11.457Z,72.92
2023-03-05T12:16:11.577Z,72.34
2023-03-05T12:17:11.442Z,71.39
2023-03-05T12:18:11.417Z,72.78
2023-03-05T12:19:11.410Z,74.79
2023-03-05T12:20:11.452Z,73.36
2023-03-05T12:21:11.384Z,74.79
2023-03-05T12:22:11.365Z,74.12
2023-03-05T12:24:11.346Z,72.50
2023-03-05T12:25:11.325Z,71.36
2023-03-05T12:26:11.318Z,71.73
2023-03-05T12:27:11.317Z,71.93
2023-03-05T12:28:11.294Z,72.41
2023-03-05T12:29:11.273Z,71.55
2023-03-05T12:30:11.267Z,71.83
2023-03-05T12:31:11.285Z,72.75
2023-03-05T12:32:11.481Z,71.42
2023-03-05T12:33:11.221Z,71.51
2023-03-05T12:34:11.212Z,74.18
2023-03-05T12:35:11.196Z,74.37
2023-03-05T12:36:11.185Z,77.03
2023-03-05T12:37:11.173Z,74.75
2023-03-05T12:38:26.186Z,73.51
2023-03-05T12:39:11.142Z,76.27
2023-03-05T12:40:11.131Z,74.75
2023-03-05T12:41:11.117Z,73.41
2023-03-05T12:42:11.109Z,73.13
2023-03-05T12:43:11.110Z,73.32
2023-03-05T12:44:11.078Z,73.07
2023-03-05T12:45:11.068Z,75.07
2023-03-05T12:46:11.053Z,74.02
2023-03-05T12:47:11.036Z,72.88
2023-03-05T12:48:11.166Z,71.93
2023-03-05T12:49:11.010Z,70.97
2023-03-05T12:50:11.012Z,71.01
2023-03-05T12:51:10.984Z,71.77
2023-03-05T12:52:10.974Z,72.34
2023-03-05T12:53:10.959Z,72.16
2023-03-05T12:54:10.950Z,71.01